sensor_id;sensor_type;location;lat;lon;timestamp;P1;durP1;ratioP1;P2;durP2;ratioP2
29634;SDS011;16557;54.762;56.068;2022-12-18T00:00:31;143.60;;;73.15;;
29634;SDS011;16557;54.762;56.068;2022-12-18T00:03:00;144.82;;;72.65;;
29634;SDS011;16557;54.762;56.068;2022-12-18T00:05:31;144.85;;;72.45;;
29634;SDS011;16557;54.762;56.068;2022-12-18T00:08:02;144.60;;;72.60;;
29634;SDS011;16557;54.762;56.068;2022-12-18T00:10:33;149.32;;;73.45;;
29634;SDS011;16557;54.762;56.068;2022-12-18T00:13:02;154.25;;;75.72;;
29634;SDS011;16557;54.762;56.068;2022-12-18T00:15:33;153.25;;;73.95;;
29634;SDS011;16557;54.762;56.068;2022-12-18T00:18:03;154.78;;;76.40;;
29634;SDS011;16557;54.762;56.068;2022-12-18T00:20:36;154.20;;;78.40;;
29634;SDS011;16557;54.762;56.068;2022-12-18T00:23:06;163.47;;;79.58;;
29634;SDS011;16557;54.762;56.068;2022-12-18T00:25:36;165.92;;;77.90;;
29634;SDS011;16557;54.762;56.068;2022-12-18T00:28:05;167.93;;;78.72;;
29634;SDS011;16557;54.762;56.068;2022-12-18T00:30:35;153.15;;;79.60;;
29634;SDS011;16557;54.762;56.068;2022-12-18T00:33:04;156.85;;;77.60;;
29634;SDS011;16557;54.762;56.068;2022-12-18T00:35:33;151.07;;;76.50;;
29634;SDS011;16557;54.762;56.068;2022-12-18T00:38:02;156.55;;;77.62;;
29634;SDS011;16557;54.762;56.068;2022-12-18T00:40:33;153.70;;;76.60;;
29634;SDS011;16557;54.762;56.068;2022-12-18T00:43:02;157.93;;;79.95;;
29634;SDS011;16557;54.762;56.068;2022-12-18T00:45:32;156.12;;;75.65;;
29634;SDS011;16557;54.762;56.068;2022-12-18T00:48:01;196.50;;;106.67;;
29634;SDS011;16557;54.762;56.068;2022-12-18T00:50:31;153.90;;;78.97;;
29634;SDS011;16557;54.762;56.068;2022-12-18T00:53:00;146.00;;;72.27;;
29634;SDS011;16557;54.762;56.068;2022-12-18T00:55:30;139.68;;;68.75;;
29634;SDS011;16557;54.762;56.068;2022-12-18T00:57:59;145.97;;;72.12;;
29634;SDS011;16557;54.762;56.068;2022-12-18T01:00:29;129.70;;;66.22;;
29634;SDS011;16557;54.762;56.068;2022-12-18T01:02:58;130.63;;;65.97;;
29634;SDS011;16557;54.762;56.068;2022-12-18T01:05:27;130.25;;;65.75;;
29634;SDS011;16557;54.762;56.068;2022-12-18T01:07:57;130.07;;;64.07;;
29634;SDS011;16557;54.762;56.068;2022-12-18T01:10:26;126.40;;;62.50;;
29634;SDS011;16557;54.762;56.068;2022-12-18T01:12:55;110.83;;;58.60;;
29634;SDS011;16557;54.762;56.068;2022-12-18T01:15:25;109.17;;;55.25;;
29634;SDS011;16557;54.762;56.068;2022-12-18T01:17:54;109.27;;;54.23;;
29634;SDS011;16557;54.762;56.068;2022-12-18T01:20:23;101.00;;;51.63;;
29634;SDS011;16557;54.762;56.068;2022-12-18T01:22:53;96.22;;;48.45;;
29634;SDS011;16557;54.762;56.068;2022-12-18T01:25:22;93.33;;;47.60;;
29634;SDS011;16557;54.762;56.068;2022-12-18T01:27:51;87.95;;;46.58;;
29634;SDS011;16557;54.762;56.068;2022-12-18T01:30:20;85.95;;;44.90;;
29634;SDS011;16557;54.762;56.068;2022-12-18T01:32:49;84.32;;;45.03;;
29634;SDS011;16557;54.762;56.068;2022-12-18T01:35:19;80.12;;;42.80;;
29634;SDS011;16557;54.762;56.068;2022-12-18T01:37:48;79.45;;;40.28;;
29634;SDS011;16557;54.762;56.068;2022-12-18T01:40:18;80.67;;;40.70;;
29634;SDS011;16557;54.762;56.068;2022-12-18T01:42:51;76.42;;;39.90;;
29634;SDS011;16557;54.762;56.068;2022-12-18T01:45:27;68.35;;;36.08;;
29634;SDS011;16557;54.762;56.068;2022-12-18T01:48:02;67.47;;;37.00;;
29634;SDS011;16557;54.762;56.068;2022-12-18T01:50:34;63.65;;;34.73;;
29634;SDS011;16557;54.762;56.068;2022-12-18T01:53:17;60.58;;;33.88;;
29634;SDS011;16557;54.762;56.068;2022-12-18T01:55:50;61.75;;;33.88;;
29634;SDS011;16557;54.762;56.068;2022-12-18T01:58:39;61.30;;;32.83;;
29634;SDS011;16557;54.762;56.068;2022-12-18T02:01:11;60.73;;;30.97;;
29634;SDS011;16557;54.762;56.068;2022-12-18T02:03:41;59.23;;;31.55;;
29634;SDS011;16557;54.762;56.068;2022-12-18T02:06:13;57.20;;;33.00;;
29634;SDS011;16557;54.762;56.068;2022-12-18T02:09:05;57.23;;;31.65;;
29634;SDS011;16557;54.762;56.068;2022-12-18T02:11:43;56.37;;;29.95;;
29634;SDS011;16557;54.762;56.068;2022-12-18T02:17:07;52.88;;;28.62;;
29634;SDS011;16557;54.762;56.068;2022-12-18T02:19:39;51.23;;;28.17;;
29634;SDS011;16557;54.762;56.068;2022-12-18T02:22:17;51.28;;;27.62;;
29634;SDS011;16557;54.762;56.068;2022-12-18T02:27:23;54.48;;;29.02;;
29634;SDS011;16557;54.762;56.068;2022-12-18T02:29:53;56.05;;;28.80;;
29634;SDS011;16557;54.762;56.068;2022-12-18T02:32:24;57.05;;;28.40;;
29634;SDS011;16557;54.762;56.068;2022-12-18T02:34:55;60.05;;;29.42;;
29634;SDS011;16557;54.762;56.068;2022-12-18T02:37:25;59.63;;;29.75;;
29634;SDS011;16557;54.762;56.068;2022-12-18T02:39:56;58.05;;;29.50;;
29634;SDS011;16557;54.762;56.068;2022-12-18T02:42:25;57.60;;;29.12;;
29634;SDS011;16557;54.762;56.068;2022-12-18T02:44:56;57.48;;;30.37;;
29634;SDS011;16557;54.762;56.068;2022-12-18T02:47:29;69.55;;;33.50;;
29634;SDS011;16557;54.762;56.068;2022-12-18T02:53:17;99.07;;;53.55;;
29634;SDS011;16557;54.762;56.068;2022-12-18T03:01:43;66.28;;;34.23;;
29634;SDS011;16557;54.762;56.068;2022-12-18T03:04:11;64.97;;;33.55;;
29634;SDS011;16557;54.762;56.068;2022-12-18T03:06:48;73.92;;;35.33;;
29634;SDS011;16557;54.762;56.068;2022-12-18T03:09:22;61.83;;;34.85;;
29634;SDS011;16557;54.762;56.068;2022-12-18T03:17:34;65.95;;;33.85;;
29634;SDS011;16557;54.762;56.068;2022-12-18T03:20:06;57.55;;;31.40;;
29634;SDS011;16557;54.762;56.068;2022-12-18T03:22:38;57.73;;;31.50;;
29634;SDS011;16557;54.762;56.068;2022-12-18T03:25:08;56.63;;;30.97;;
29634;SDS011;16557;54.762;56.068;2022-12-18T03:27:41;57.53;;;31.00;;
29634;SDS011;16557;54.762;56.068;2022-12-18T03:30:14;54.85;;;28.98;;
29634;SDS011;16557;54.762;56.068;2022-12-18T03:32:56;52.55;;;27.85;;
29634;SDS011;16557;54.762;56.068;2022-12-18T03:35:27;51.65;;;27.52;;
29634;SDS011;16557;54.762;56.068;2022-12-18T03:38:01;49.30;;;26.02;;
29634;SDS011;16557;54.762;56.068;2022-12-18T03:40:40;44.95;;;25.50;;
29634;SDS011;16557;54.762;56.068;2022-12-18T03:43:16;45.28;;;23.45;;
29634;SDS011;16557;54.762;56.068;2022-12-18T03:45:47;38.88;;;20.08;;
29634;SDS011;16557;54.762;56.068;2022-12-18T03:48:17;36.60;;;18.52;;
29634;SDS011;16557;54.762;56.068;2022-12-18T03:50:54;33.67;;;18.07;;
29634;SDS011;16557;54.762;56.068;2022-12-18T03:53:42;28.75;;;16.82;;
29634;SDS011;16557;54.762;56.068;2022-12-18T03:56:25;27.70;;;14.28;;
29634;SDS011;16557;54.762;56.068;2022-12-18T03:58:56;20.97;;;11.97;;
29634;SDS011;16557;54.762;56.068;2022-12-18T04:01:38;27.90;;;13.62;;
29634;SDS011;16557;54.762;56.068;2022-12-18T04:04:08;21.60;;;11.88;;
29634;SDS011;16557;54.762;56.068;2022-12-18T04:06:38;21.20;;;12.03;;
29634;SDS011;16557;54.762;56.068;2022-12-18T04:09:09;17.05;;;9.15;;
29634;SDS011;16557;54.762;56.068;2022-12-18T04:11:39;17.60;;;8.58;;
29634;SDS011;16557;54.762;56.068;2022-12-18T04:14:11;22.85;;;9.25;;
29634;SDS011;16557;54.762;56.068;2022-12-18T04:16:40;19.23;;;8.48;;
29634;SDS011;16557;54.762;56.068;2022-12-18T04:19:09;18.25;;;9.08;;
29634;SDS011;16557;54.762;56.068;2022-12-18T04:21:39;16.10;;;8.45;;
29634;SDS011;16557;54.762;56.068;2022-12-18T04:24:08;17.85;;;7.62;;
29634;SDS011;16557;54.762;56.068;2022-12-18T04:26:37;16.70;;;7.55;;
29634;SDS011;16557;54.762;56.068;2022-12-18T04:29:06;16.97;;;8.18;;
29634;SDS011;16557;54.762;56.068;2022-12-18T04:31:36;14.43;;;8.65;;
29634;SDS011;16557;54.762;56.068;2022-12-18T04:34:05;15.00;;;7.03;;
29634;SDS011;16557;54.762;56.068;2022-12-18T04:36:34;17.05;;;7.80;;
29634;SDS011;16557;54.762;56.068;2022-12-18T04:39:04;14.47;;;6.58;;
29634;SDS011;16557;54.762;56.068;2022-12-18T04:41:33;12.30;;;6.25;;
29634;SDS011;16557;54.762;56.068;2022-12-18T04:44:03;14.43;;;6.92;;
29634;SDS011;16557;54.762;56.068;2022-12-18T04:46:32;10.80;;;5.80;;
29634;SDS011;16557;54.762;56.068;2022-12-18T04:49:02;13.03;;;7.55;;
29634;SDS011;16557;54.762;56.068;2022-12-18T04:51:31;14.03;;;6.95;;
29634;SDS011;16557;54.762;56.068;2022-12-18T04:54:00;13.62;;;6.75;;
29634;SDS011;16557;54.762;56.068;2022-12-18T04:56:30;13.88;;;6.70;;
29634;SDS011;16557;54.762;56.068;2022-12-18T04:59:00;14.58;;;7.03;;
29634;SDS011;16557;54.762;56.068;2022-12-18T05:01:29;14.93;;;6.90;;
29634;SDS011;16557;54.762;56.068;2022-12-18T05:03:58;10.88;;;6.22;;
29634;SDS011;16557;54.762;56.068;2022-12-18T05:06:27;13.13;;;6.78;;
29634;SDS011;16557;54.762;56.068;2022-12-18T05:08:57;12.98;;;6.25;;
29634;SDS011;16557;54.762;56.068;2022-12-18T05:11:26;13.43;;;6.60;;
29634;SDS011;16557;54.762;56.068;2022-12-18T05:13:55;14.33;;;6.72;;
29634;SDS011;16557;54.762;56.068;2022-12-18T05:16:24;12.45;;;6.60;;
29634;SDS011;16557;54.762;56.068;2022-12-18T05:18:54;13.75;;;6.80;;
29634;SDS011;16557;54.762;56.068;2022-12-18T05:21:25;13.18;;;6.08;;
29634;SDS011;16557;54.762;56.068;2022-12-18T05:23:54;17.27;;;6.22;;
29634;SDS011;16557;54.762;56.068;2022-12-18T05:26:23;21.27;;;10.63;;
29634;SDS011;16557;54.762;56.068;2022-12-18T05:28:52;14.45;;;7.97;;
29634;SDS011;16557;54.762;56.068;2022-12-18T05:31:25;12.53;;;6.33;;
29634;SDS011;16557;54.762;56.068;2022-12-18T05:33:54;12.88;;;6.53;;
29634;SDS011;16557;54.762;56.068;2022-12-18T05:36:23;17.30;;;8.15;;
29634;SDS011;16557;54.762;56.068;2022-12-18T05:38:52;15.58;;;6.67;;
29634;SDS011;16557;54.762;56.068;2022-12-18T05:41:21;14.45;;;6.87;;
29634;SDS011;16557;54.762;56.068;2022-12-18T05:43:51;12.33;;;6.15;;
29634;SDS011;16557;54.762;56.068;2022-12-18T05:46:20;12.40;;;5.58;;
29634;SDS011;16557;54.762;56.068;2022-12-18T05:48:49;13.72;;;7.05;;
29634;SDS011;16557;54.762;56.068;2022-12-18T05:51:19;12.65;;;6.05;;
29634;SDS011;16557;54.762;56.068;2022-12-18T05:53:50;11.97;;;6.37;;
29634;SDS011;16557;54.762;56.068;2022-12-18T05:56:21;12.90;;;5.85;;
29634;SDS011;16557;54.762;56.068;2022-12-18T05:58:52;13.32;;;6.20;;
29634;SDS011;16557;54.762;56.068;2022-12-18T06:01:23;11.70;;;5.58;;
29634;SDS011;16557;54.762;56.068;2022-12-18T06:03:53;13.65;;;6.05;;
29634;SDS011;16557;54.762;56.068;2022-12-18T06:06:24;13.22;;;6.08;;
29634;SDS011;16557;54.762;56.068;2022-12-18T06:08:55;12.80;;;6.25;;
29634;SDS011;16557;54.762;56.068;2022-12-18T06:11:25;11.18;;;5.20;;
29634;SDS011;16557;54.762;56.068;2022-12-18T06:13:55;7.75;;;5.22;;
29634;SDS011;16557;54.762;56.068;2022-12-18T06:16:25;12.25;;;5.67;;
29634;SDS011;16557;54.762;56.068;2022-12-18T06:18:59;10.53;;;6.05;;
29634;SDS011;16557;54.762;56.068;2022-12-18T06:23:57;14.73;;;5.58;;
29634;SDS011;16557;54.762;56.068;2022-12-18T06:26:27;16.05;;;8.20;;
29634;SDS011;16557;54.762;56.068;2022-12-18T06:28:57;12.13;;;5.42;;
29634;SDS011;16557;54.762;56.068;2022-12-18T06:31:26;11.18;;;5.50;;
29634;SDS011;16557;54.762;56.068;2022-12-18T06:33:55;9.68;;;4.85;;
29634;SDS011;16557;54.762;56.068;2022-12-18T06:36:25;17.15;;;8.55;;
29634;SDS011;16557;54.762;56.068;2022-12-18T06:38:54;14.38;;;6.20;;
29634;SDS011;16557;54.762;56.068;2022-12-18T06:41:24;12.28;;;5.95;;
29634;SDS011;16557;54.762;56.068;2022-12-18T06:43:53;8.60;;;6.10;;
29634;SDS011;16557;54.762;56.068;2022-12-18T06:46:23;10.68;;;5.87;;
29634;SDS011;16557;54.762;56.068;2022-12-18T06:48:52;15.68;;;6.35;;
29634;SDS011;16557;54.762;56.068;2022-12-18T06:51:22;12.73;;;6.33;;
29634;SDS011;16557;54.762;56.068;2022-12-18T06:53:53;11.48;;;5.85;;
29634;SDS011;16557;54.762;56.068;2022-12-18T06:56:22;13.15;;;6.83;;
29634;SDS011;16557;54.762;56.068;2022-12-18T06:58:51;16.37;;;8.00;;
29634;SDS011;16557;54.762;56.068;2022-12-18T07:01:21;13.13;;;6.12;;
29634;SDS011;16557;54.762;56.068;2022-12-18T07:03:51;14.35;;;6.15;;
29634;SDS011;16557;54.762;56.068;2022-12-18T07:06:22;12.80;;;6.03;;
29634;SDS011;16557;54.762;56.068;2022-12-18T07:08:53;12.13;;;5.70;;
29634;SDS011;16557;54.762;56.068;2022-12-18T07:11:22;13.58;;;6.33;;
29634;SDS011;16557;54.762;56.068;2022-12-18T07:13:52;12.15;;;6.55;;
29634;SDS011;16557;54.762;56.068;2022-12-18T07:16:21;12.65;;;6.35;;
29634;SDS011;16557;54.762;56.068;2022-12-18T07:18:51;14.50;;;6.35;;
29634;SDS011;16557;54.762;56.068;2022-12-18T07:21:21;12.93;;;6.30;;
29634;SDS011;16557;54.762;56.068;2022-12-18T07:23:51;13.22;;;6.90;;
29634;SDS011;16557;54.762;56.068;2022-12-18T07:26:20;12.85;;;5.97;;
29634;SDS011;16557;54.762;56.068;2022-12-18T07:28:50;17.05;;;7.03;;
29634;SDS011;16557;54.762;56.068;2022-12-18T07:31:21;12.35;;;5.92;;
29634;SDS011;16557;54.762;56.068;2022-12-18T07:33:50;9.85;;;5.78;;
29634;SDS011;16557;54.762;56.068;2022-12-18T07:36:22;11.80;;;6.17;;
29634;SDS011;16557;54.762;56.068;2022-12-18T07:38:52;11.93;;;6.35;;
29634;SDS011;16557;54.762;56.068;2022-12-18T07:41:21;14.25;;;6.28;;
29634;SDS011;16557;54.762;56.068;2022-12-18T07:43:50;11.03;;;6.25;;
29634;SDS011;16557;54.762;56.068;2022-12-18T07:46:22;13.03;;;7.25;;
29634;SDS011;16557;54.762;56.068;2022-12-18T07:48:52;15.55;;;7.35;;
29634;SDS011;16557;54.762;56.068;2022-12-18T07:51:21;13.20;;;6.42;;
29634;SDS011;16557;54.762;56.068;2022-12-18T07:53:50;13.78;;;7.70;;
29634;SDS011;16557;54.762;56.068;2022-12-18T07:56:20;13.72;;;7.78;;
29634;SDS011;16557;54.762;56.068;2022-12-18T07:58:49;12.85;;;7.17;;
29634;SDS011;16557;54.762;56.068;2022-12-18T08:01:18;14.80;;;7.42;;
29634;SDS011;16557;54.762;56.068;2022-12-18T08:03:48;16.90;;;9.13;;
29634;SDS011;16557;54.762;56.068;2022-12-18T08:06:17;11.28;;;7.12;;
29634;SDS011;16557;54.762;56.068;2022-12-18T08:08:46;19.77;;;7.97;;
29634;SDS011;16557;54.762;56.068;2022-12-18T08:11:16;13.62;;;7.33;;
29634;SDS011;16557;54.762;56.068;2022-12-18T08:13:45;12.98;;;7.45;;
29634;SDS011;16557;54.762;56.068;2022-12-18T08:16:15;15.38;;;8.68;;
29634;SDS011;16557;54.762;56.068;2022-12-18T08:18:44;12.95;;;7.33;;
29634;SDS011;16557;54.762;56.068;2022-12-18T08:21:15;13.98;;;7.67;;
29634;SDS011;16557;54.762;56.068;2022-12-18T08:23:45;18.37;;;8.95;;
29634;SDS011;16557;54.762;56.068;2022-12-18T08:26:15;14.98;;;8.60;;
29634;SDS011;16557;54.762;56.068;2022-12-18T08:28:44;15.85;;;8.23;;
29634;SDS011;16557;54.762;56.068;2022-12-18T08:31:14;15.32;;;8.15;;
29634;SDS011;16557;54.762;56.068;2022-12-18T08:33:44;16.73;;;8.25;;
29634;SDS011;16557;54.762;56.068;2022-12-18T08:36:14;16.25;;;8.83;;
29634;SDS011;16557;54.762;56.068;2022-12-18T08:38:43;19.42;;;9.43;;
29634;SDS011;16557;54.762;56.068;2022-12-18T08:41:13;19.92;;;8.78;;
29634;SDS011;16557;54.762;56.068;2022-12-18T08:43:43;15.35;;;8.13;;
29634;SDS011;16557;54.762;56.068;2022-12-18T08:46:40;15.63;;;8.88;;
29634;SDS011;16557;54.762;56.068;2022-12-18T08:49:10;21.17;;;9.05;;
29634;SDS011;16557;54.762;56.068;2022-12-18T08:51:40;20.60;;;10.60;;
29634;SDS011;16557;54.762;56.068;2022-12-18T08:54:11;19.82;;;8.85;;
29634;SDS011;16557;54.762;56.068;2022-12-18T08:56:41;19.02;;;9.58;;
29634;SDS011;16557;54.762;56.068;2022-12-18T08:59:10;13.60;;;9.05;;
29634;SDS011;16557;54.762;56.068;2022-12-18T09:01:39;24.80;;;10.60;;
29634;SDS011;16557;54.762;56.068;2022-12-18T09:04:09;17.75;;;10.05;;
29634;SDS011;16557;54.762;56.068;2022-12-18T09:06:38;23.40;;;11.65;;
29634;SDS011;16557;54.762;56.068;2022-12-18T09:09:08;19.25;;;10.30;;
29634;SDS011;16557;54.762;56.068;2022-12-18T09:11:38;18.20;;;10.72;;
29634;SDS011;16557;54.762;56.068;2022-12-18T09:14:08;18.90;;;10.72;;
29634;SDS011;16557;54.762;56.068;2022-12-18T09:16:38;23.83;;;11.75;;
29634;SDS011;16557;54.762;56.068;2022-12-18T09:19:08;20.75;;;12.18;;
29634;SDS011;16557;54.762;56.068;2022-12-18T09:21:37;20.45;;;11.45;;
29634;SDS011;16557;54.762;56.068;2022-12-18T09:24:11;22.65;;;11.57;;
29634;SDS011;16557;54.762;56.068;2022-12-18T09:26:42;20.72;;;11.73;;
29634;SDS011;16557;54.762;56.068;2022-12-18T09:29:11;24.43;;;13.00;;
29634;SDS011;16557;54.762;56.068;2022-12-18T09:31:40;31.12;;;12.45;;
29634;SDS011;16557;54.762;56.068;2022-12-18T09:34:10;21.10;;;11.25;;
29634;SDS011;16557;54.762;56.068;2022-12-18T09:36:39;22.48;;;11.65;;
29634;SDS011;16557;54.762;56.068;2022-12-18T09:39:08;21.93;;;11.63;;
29634;SDS011;16557;54.762;56.068;2022-12-18T09:41:43;28.67;;;14.80;;
29634;SDS011;16557;54.762;56.068;2022-12-18T09:49:49;26.00;;;13.85;;
29634;SDS011;16557;54.762;56.068;2022-12-18T09:52:21;25.00;;;13.32;;
29634;SDS011;16557;54.762;56.068;2022-12-18T09:55:05;27.40;;;14.58;;
29634;SDS011;16557;54.762;56.068;2022-12-18T09:57:29;24.23;;;14.10;;
29634;SDS011;16557;54.762;56.068;2022-12-18T10:00:06;22.87;;;14.28;;
29634;SDS011;16557;54.762;56.068;2022-12-18T10:02:38;25.23;;;13.38;;
29634;SDS011;16557;54.762;56.068;2022-12-18T10:05:10;25.45;;;14.43;;
29634;SDS011;16557;54.762;56.068;2022-12-18T10:07:55;26.62;;;15.40;;
29634;SDS011;16557;54.762;56.068;2022-12-18T10:10:50;35.30;;;15.38;;
29634;SDS011;16557;54.762;56.068;2022-12-18T10:16:08;27.30;;;15.80;;
29634;SDS011;16557;54.762;56.068;2022-12-18T10:18:56;26.42;;;15.23;;
29634;SDS011;16557;54.762;56.068;2022-12-18T10:21:44;29.72;;;16.67;;
29634;SDS011;16557;54.762;56.068;2022-12-18T10:24:35;31.68;;;16.65;;
29634;SDS011;16557;54.762;56.068;2022-12-18T10:26:55;28.10;;;16.42;;
29634;SDS011;16557;54.762;56.068;2022-12-18T10:29:27;29.10;;;16.42;;
29634;SDS011;16557;54.762;56.068;2022-12-18T10:31:56;30.92;;;16.90;;
29634;SDS011;16557;54.762;56.068;2022-12-18T10:34:25;34.30;;;19.20;;
29634;SDS011;16557;54.762;56.068;2022-12-18T10:36:55;32.60;;;17.80;;
29634;SDS011;16557;54.762;56.068;2022-12-18T10:39:24;28.57;;;16.40;;
29634;SDS011;16557;54.762;56.068;2022-12-18T10:42:09;27.67;;;16.20;;
29634;SDS011;16557;54.762;56.068;2022-12-18T10:44:34;27.85;;;16.42;;
29634;SDS011;16557;54.762;56.068;2022-12-18T10:47:04;31.17;;;17.05;;
29634;SDS011;16557;54.762;56.068;2022-12-18T10:49:35;30.27;;;16.75;;
29634;SDS011;16557;54.762;56.068;2022-12-18T10:52:05;32.93;;;18.57;;
29634;SDS011;16557;54.762;56.068;2022-12-18T10:59:56;31.15;;;16.10;;
29634;SDS011;16557;54.762;56.068;2022-12-18T11:02:34;29.65;;;16.52;;
29634;SDS011;16557;54.762;56.068;2022-12-18T11:05:24;28.17;;;16.45;;
29634;SDS011;16557;54.762;56.068;2022-12-18T11:07:52;31.97;;;14.18;;
29634;SDS011;16557;54.762;56.068;2022-12-18T11:10:23;28.25;;;15.58;;
29634;SDS011;16557;54.762;56.068;2022-12-18T11:13:12;29.40;;;15.88;;
29634;SDS011;16557;54.762;56.068;2022-12-18T11:15:46;30.25;;;15.30;;
29634;SDS011;16557;54.762;56.068;2022-12-18T11:18:16;26.70;;;15.10;;
29634;SDS011;16557;54.762;56.068;2022-12-18T11:20:55;34.83;;;17.07;;
29634;SDS011;16557;54.762;56.068;2022-12-18T11:23:34;28.07;;;15.65;;
29634;SDS011;16557;54.762;56.068;2022-12-18T11:26:04;24.80;;;14.73;;
29634;SDS011;16557;54.762;56.068;2022-12-18T11:28:35;26.05;;;13.55;;
29634;SDS011;16557;54.762;56.068;2022-12-18T11:36:22;24.98;;;12.55;;
29634;SDS011;16557;54.762;56.068;2022-12-18T11:38:52;28.23;;;14.93;;
29634;SDS011;16557;54.762;56.068;2022-12-18T11:41:27;26.30;;;14.40;;
29634;SDS011;16557;54.762;56.068;2022-12-18T11:44:23;21.27;;;12.95;;
29634;SDS011;16557;54.762;56.068;2022-12-18T11:47:04;21.20;;;11.60;;
29634;SDS011;16557;54.762;56.068;2022-12-18T11:49:35;24.10;;;12.37;;
29634;SDS011;16557;54.762;56.068;2022-12-18T11:54:44;19.60;;;11.95;;
29634;SDS011;16557;54.762;56.068;2022-12-18T11:57:24;20.45;;;11.50;;
29634;SDS011;16557;54.762;56.068;2022-12-18T12:00:09;22.25;;;11.93;;
29634;SDS011;16557;54.762;56.068;2022-12-18T12:05:36;21.82;;;12.03;;
29634;SDS011;16557;54.762;56.068;2022-12-18T12:11:09;23.97;;;11.93;;
29634;SDS011;16557;54.762;56.068;2022-12-18T12:14:01;27.02;;;12.68;;
29634;SDS011;16557;54.762;56.068;2022-12-18T12:16:35;18.20;;;10.43;;
29634;SDS011;16557;54.762;56.068;2022-12-18T12:22:04;22.70;;;11.83;;
29634;SDS011;16557;54.762;56.068;2022-12-18T12:38:31;21.05;;;12.45;;
29634;SDS011;16557;54.762;56.068;2022-12-18T12:41:06;21.87;;;11.93;;
29634;SDS011;16557;54.762;56.068;2022-12-18T12:46:11;19.48;;;11.45;;
29634;SDS011;16557;54.762;56.068;2022-12-18T12:48:43;21.02;;;10.32;;
29634;SDS011;16557;54.762;56.068;2022-12-18T12:53:56;25.20;;;14.45;;
29634;SDS011;16557;54.762;56.068;2022-12-18T12:56:48;18.25;;;10.98;;
29634;SDS011;16557;54.762;56.068;2022-12-18T12:59:14;15.93;;;9.83;;
29634;SDS011;16557;54.762;56.068;2022-12-18T13:07:32;19.55;;;11.00;;
29634;SDS011;16557;54.762;56.068;2022-12-18T13:12:58;19.70;;;9.30;;
29634;SDS011;16557;54.762;56.068;2022-12-18T13:18:10;17.30;;;10.03;;
29634;SDS011;16557;54.762;56.068;2022-12-18T13:20:38;23.73;;;12.95;;
29634;SDS011;16557;54.762;56.068;2022-12-18T13:23:19;20.25;;;9.58;;
29634;SDS011;16557;54.762;56.068;2022-12-18T13:25:56;22.37;;;10.63;;
29634;SDS011;16557;54.762;56.068;2022-12-18T13:34:20;13.25;;;7.72;;
29634;SDS011;16557;54.762;56.068;2022-12-18T13:36:51;13.05;;;7.85;;
29634;SDS011;16557;54.762;56.068;2022-12-18T13:39:25;16.52;;;7.75;;
29634;SDS011;16557;54.762;56.068;2022-12-18T13:44:38;19.23;;;10.48;;
29634;SDS011;16557;54.762;56.068;2022-12-18T13:47:26;20.97;;;9.83;;
29634;SDS011;16557;54.762;56.068;2022-12-18T13:50:03;17.90;;;8.75;;
29634;SDS011;16557;54.762;56.068;2022-12-18T13:52:39;14.18;;;8.43;;
29634;SDS011;16557;54.762;56.068;2022-12-18T13:55:18;18.48;;;9.23;;
29634;SDS011;16557;54.762;56.068;2022-12-18T13:57:43;14.13;;;8.75;;
29634;SDS011;16557;54.762;56.068;2022-12-18T14:00:23;16.05;;;8.98;;
29634;SDS011;16557;54.762;56.068;2022-12-18T14:02:48;19.30;;;9.05;;
29634;SDS011;16557;54.762;56.068;2022-12-18T14:05:25;21.07;;;9.23;;
29634;SDS011;16557;54.762;56.068;2022-12-18T14:08:00;17.90;;;8.48;;
29634;SDS011;16557;54.762;56.068;2022-12-18T14:10:43;14.90;;;8.68;;
29634;SDS011;16557;54.762;56.068;2022-12-18T14:13:24;12.13;;;7.95;;
29634;SDS011;16557;54.762;56.068;2022-12-18T14:15:59;16.35;;;8.95;;
29634;SDS011;16557;54.762;56.068;2022-12-18T14:18:43;17.75;;;8.95;;
29634;SDS011;16557;54.762;56.068;2022-12-18T14:21:31;15.58;;;9.28;;
29634;SDS011;16557;54.762;56.068;2022-12-18T14:24:03;18.67;;;9.78;;
29634;SDS011;16557;54.762;56.068;2022-12-18T14:26:34;15.25;;;9.08;;
29634;SDS011;16557;54.762;56.068;2022-12-18T14:34:48;17.45;;;9.35;;
29634;SDS011;16557;54.762;56.068;2022-12-18T14:37:17;16.32;;;8.48;;
29634;SDS011;16557;54.762;56.068;2022-12-18T14:40:01;22.65;;;12.65;;
29634;SDS011;16557;54.762;56.068;2022-12-18T14:42:33;19.15;;;10.43;;
29634;SDS011;16557;54.762;56.068;2022-12-18T14:48:15;16.20;;;9.28;;
29634;SDS011;16557;54.762;56.068;2022-12-18T14:51:01;14.20;;;7.25;;
29634;SDS011;16557;54.762;56.068;2022-12-18T14:53:41;21.27;;;9.58;;
29634;SDS011;16557;54.762;56.068;2022-12-18T14:56:14;13.75;;;8.18;;
29634;SDS011;16557;54.762;56.068;2022-12-18T14:59:01;14.78;;;7.47;;
29634;SDS011;16557;54.762;56.068;2022-12-18T15:01:35;13.88;;;8.30;;
29634;SDS011;16557;54.762;56.068;2022-12-18T15:04:21;16.02;;;8.90;;
29634;SDS011;16557;54.762;56.068;2022-12-18T15:06:38;13.68;;;8.23;;
29634;SDS011;16557;54.762;56.068;2022-12-18T15:09:22;12.93;;;7.65;;
29634;SDS011;16557;54.762;56.068;2022-12-18T15:11:57;15.40;;;7.97;;
29634;SDS011;16557;54.762;56.068;2022-12-18T15:17:02;18.92;;;10.32;;
29634;SDS011;16557;54.762;56.068;2022-12-18T15:24:49;18.37;;;9.50;;
29634;SDS011;16557;54.762;56.068;2022-12-18T15:32:37;17.62;;;9.60;;
29634;SDS011;16557;54.762;56.068;2022-12-18T15:37:45;16.20;;;9.25;;
29634;SDS011;16557;54.762;56.068;2022-12-18T15:40:14;19.98;;;9.20;;
29634;SDS011;16557;54.762;56.068;2022-12-18T15:42:50;16.80;;;9.18;;
29634;SDS011;16557;54.762;56.068;2022-12-18T15:45:37;17.50;;;9.48;;
29634;SDS011;16557;54.762;56.068;2022-12-18T15:48:25;20.95;;;10.93;;
29634;SDS011;16557;54.762;56.068;2022-12-18T15:50:50;22.27;;;11.73;;
29634;SDS011;16557;54.762;56.068;2022-12-18T15:53:27;22.97;;;14.23;;
29634;SDS011;16557;54.762;56.068;2022-12-18T15:55:58;16.77;;;9.20;;
29634;SDS011;16557;54.762;56.068;2022-12-18T15:58:45;16.48;;;9.85;;
29634;SDS011;16557;54.762;56.068;2022-12-18T16:01:25;19.07;;;10.28;;
29634;SDS011;16557;54.762;56.068;2022-12-18T16:03:48;28.73;;;16.10;;
29634;SDS011;16557;54.762;56.068;2022-12-18T16:06:17;19.55;;;10.98;;
29634;SDS011;16557;54.762;56.068;2022-12-18T16:08:47;22.52;;;12.05;;
29634;SDS011;16557;54.762;56.068;2022-12-18T16:11:20;18.95;;;9.98;;
29634;SDS011;16557;54.762;56.068;2022-12-18T16:14:19;19.82;;;10.03;;
29634;SDS011;16557;54.762;56.068;2022-12-18T16:16:57;13.78;;;8.45;;
29634;SDS011;16557;54.762;56.068;2022-12-18T16:19:27;16.02;;;9.68;;
29634;SDS011;16557;54.762;56.068;2022-12-18T16:21:57;19.80;;;9.83;;
29634;SDS011;16557;54.762;56.068;2022-12-18T16:24:28;19.10;;;8.85;;
29634;SDS011;16557;54.762;56.068;2022-12-18T16:26:59;20.75;;;9.78;;
29634;SDS011;16557;54.762;56.068;2022-12-18T16:29:28;16.75;;;8.88;;
29634;SDS011;16557;54.762;56.068;2022-12-18T16:31:58;17.17;;;9.45;;
29634;SDS011;16557;54.762;56.068;2022-12-18T16:34:29;15.40;;;9.45;;
29634;SDS011;16557;54.762;56.068;2022-12-18T16:37:06;19.45;;;9.28;;
29634;SDS011;16557;54.762;56.068;2022-12-18T16:39:30;17.42;;;9.75;;